sensor_id;sensor_type;location;lat;lon;timestamp;pressure;altitude;pressure_sealevel;temperature;humidity
75936;BME280;64614;32.062;34.834;2024-01-06T01:14:15;101608.56;;;24.82;47.81
75936;BME280;64614;32.062;34.834;2024-01-06T01:16:43;101614.06;;;24.82;47.86
75936;BME280;64614;32.062;34.834;2024-01-06T01:19:09;101607.56;;;24.78;47.64
75936;BME280;64614;32.062;34.834;2024-01-06T01:21:35;101616.00;;;24.81;47.79
75936;BME280;64614;32.062;34.834;2024-01-06T01:24:03;101616.22;;;24.85;47.97
75936;BME280;64614;32.062;34.834;2024-01-06T01:26:29;101621.38;;;24.86;47.71
75936;BME280;64614;32.062;34.834;2024-01-06T01:29:00;101632.19;;;24.97;48.01
75936;BME280;64614;32.062;34.834;2024-01-06T01:31:38;101615.09;;;24.86;47.94
75936;BME280;64614;32.062;34.834;2024-01-06T01:34:04;101644.03;;;25.11;47.57
75936;BME280;64614;32.062;34.834;2024-01-06T01:36:29;101626.50;;;24.93;47.67
75936;BME280;64614;32.062;34.834;2024-01-06T01:38:55;101612.88;;;24.88;47.85
75936;BME280;64614;32.062;34.834;2024-01-06T01:41:20;101637.19;;;25.09;47.85
75936;BME280;64614;32.062;34.834;2024-01-06T01:43:46;101641.56;;;25.10;47.72
75936;BME280;64614;32.062;34.834;2024-01-06T01:46:12;101607.56;;;24.92;47.58
75936;BME280;64614;32.062;34.834;2024-01-06T03:36:38;101704.00;;;25.23;47.74
75936;BME280;64614;32.062;34.834;2024-01-06T03:39:04;101709.78;;;25.22;48.14
75936;BME280;64614;32.062;34.834;2024-01-06T03:41:31;101711.72;;;25.21;47.78
75936;BME280;64614;32.062;34.834;2024-01-06T03:43:57;101714.47;;;25.21;47.95
75936;BME280;64614;32.062;34.834;2024-01-06T03:46:23;101708.56;;;25.14;47.99
75936;BME280;64614;32.062;34.834;2024-01-06T03:48:49;101720.75;;;25.22;47.83
75936;BME280;64614;32.062;34.834;2024-01-06T03:51:16;101695.81;;;25.04;47.94
75936;BME280;64614;32.062;34.834;2024-01-06T04:06:38;101732.59;;;25.22;48.14
75936;BME280;64614;32.062;34.834;2024-01-06T04:19:25;101732.59;;;25.22;47.84
75936;BME280;64614;32.062;34.834;2024-01-06T04:21:51;101739.22;;;25.21;47.92
75936;BME280;64614;32.062;34.834;2024-01-06T04:24:17;101723.63;;;25.16;48.00
75936;BME280;64614;32.062;34.834;2024-01-06T04:26:45;101721.78;;;25.12;47.72
75936;BME280;64614;32.062;34.834;2024-01-06T04:29:11;101734.81;;;25.20;47.96
75936;BME280;64614;32.062;34.834;2024-01-06T04:31:37;101727.81;;;25.14;47.64
75936;BME280;64614;32.062;34.834;2024-01-06T04:34:03;101741.44;;;25.19;48.09
75936;BME280;64614;32.062;34.834;2024-01-06T04:36:29;101711.59;;;24.98;47.62
75936;BME280;64614;32.062;34.834;2024-01-06T04:38:54;101748.25;;;25.22;47.73
75936;BME280;64614;32.062;34.834;2024-01-06T04:41:20;101732.78;;;25.12;48.02
75936;BME280;64614;32.062;34.834;2024-01-06T04:43:46;101744.81;;;25.16;48.20
75936;BME280;64614;32.062;34.834;2024-01-06T04:46:13;101752.94;;;25.21;48.01
75936;BME280;64614;32.062;34.834;2024-01-06T04:48:40;101763.16;;;25.21;48.09
75936;BME280;64614;32.062;34.834;2024-01-06T04:51:09;101740.50;;;25.10;48.07
75936;BME280;64614;32.062;34.834;2024-01-06T04:53:36;101762.31;;;25.20;48.00
75936;BME280;64614;32.062;34.834;2024-01-06T04:56:02;101736.81;;;25.00;47.78
75936;BME280;64614;32.062;34.834;2024-01-06T04:58:27;101768.13;;;25.18;48.22
75936;BME280;64614;32.062;34.834;2024-01-06T05:00:53;101751.09;;;25.02;47.85
75936;BME280;64614;32.062;34.834;2024-01-06T05:03:19;101766.19;;;25.19;47.73
75936;BME280;64614;32.062;34.834;2024-01-06T05:05:44;101752.34;;;25.10;47.87
75936;BME280;64614;32.062;34.834;2024-01-06T05:08:11;101762.91;;;25.17;48.20
75936;BME280;64614;32.062;34.834;2024-01-06T05:10:37;101755.38;;;25.09;47.63
75936;BME280;64614;32.062;34.834;2024-01-06T05:13:03;101762.91;;;25.17;48.08
75936;BME280;64614;32.062;34.834;2024-01-06T05:15:28;101761.31;;;25.16;48.00
75936;BME280;64614;32.062;34.834;2024-01-06T05:17:54;101764.75;;;25.22;47.83
75936;BME280;64614;32.062;34.834;2024-01-06T05:20:20;101772.72;;;25.23;48.08
75936;BME280;64614;32.062;34.834;2024-01-06T05:22:47;101762.09;;;25.16;48.22
75936;BME280;64614;32.062;34.834;2024-01-06T05:25:15;101770.50;;;25.25;48.14
75936;BME280;64614;32.062;34.834;2024-01-06T05:27:41;101764.53;;;25.18;48.20
75936;BME280;64614;32.062;34.834;2024-01-06T05:30:08;101728.88;;;24.99;48.19
75936;BME280;64614;32.062;34.834;2024-01-06T05:32:53;101769.06;;;25.28;48.37
75936;BME280;64614;32.062;34.834;2024-01-06T05:50:54;101756.75;;;25.25;48.36
75936;BME280;64614;32.062;34.834;2024-01-06T05:53:23;101769.88;;;25.28;48.30
75936;BME280;64614;32.062;34.834;2024-01-06T05:55:48;101782.50;;;25.29;48.84
75936;BME280;64614;32.062;34.834;2024-01-06T05:58:14;101767.75;;;25.25;48.99
75936;BME280;64614;32.062;34.834;2024-01-06T06:00:41;101764.47;;;25.23;48.50
75936;BME280;64614;32.062;34.834;2024-01-06T06:03:06;101775.38;;;25.28;48.71
75936;BME280;64614;32.062;34.834;2024-01-06T06:05:33;101782.50;;;25.29;48.18
75936;BME280;64614;32.062;34.834;2024-01-06T06:08:03;101776.69;;;25.31;48.63
75936;BME280;64614;32.062;34.834;2024-01-06T06:24:39;101788.94;;;25.39;48.34
75936;BME280;64614;32.062;34.834;2024-01-06T06:27:05;101789.88;;;25.48;48.39
75936;BME280;64614;32.062;34.834;2024-01-06T06:29:30;101804.97;;;25.50;48.35
75936;BME280;64614;32.062;34.834;2024-01-06T06:31:56;101796.19;;;25.48;48.29
75936;BME280;64614;32.062;34.834;2024-01-06T06:34:21;101806.59;;;25.52;48.50
75936;BME280;64614;32.062;34.834;2024-01-06T06:39:22;101791.25;;;25.31;48.27
75936;BME280;64614;32.062;34.834;2024-01-06T06:41:48;101819.34;;;25.47;48.25
75936;BME280;64614;32.062;34.834;2024-01-06T06:53:11;101780.84;;;25.47;47.85
75936;BME280;64614;32.062;34.834;2024-01-06T06:55:38;101797.22;;;25.53;47.66
75936;BME280;64614;32.062;34.834;2024-01-06T06:58:04;101812.69;;;25.62;47.90
75936;BME280;64614;32.062;34.834;2024-01-06T07:00:33;101773.53;;;25.38;47.54
75936;BME280;64614;32.062;34.834;2024-01-06T07:02:59;101814.13;;;25.60;47.92
75936;BME280;64614;32.062;34.834;2024-01-06T07:05:25;101780.41;;;25.40;47.94
75936;BME280;64614;32.062;34.834;2024-01-06T07:07:57;101822.78;;;25.67;48.14
75936;BME280;64614;32.062;34.834;2024-01-06T07:10:22;101825.25;;;25.69;47.90
75936;BME280;64614;32.062;34.834;2024-01-06T07:12:48;101811.06;;;25.61;48.02
75936;BME280;64614;32.062;34.834;2024-01-06T07:15:13;101823.81;;;25.71;47.69
75936;BME280;64614;32.062;34.834;2024-01-06T07:17:39;101830.97;;;25.72;47.82
75936;BME280;64614;32.062;34.834;2024-01-06T07:20:08;101824.84;;;25.75;48.10
75936;BME280;64614;32.062;34.834;2024-01-06T07:22:33;101827.09;;;25.87;47.75
75936;BME280;64614;32.062;34.834;2024-01-06T07:25:00;101808.63;;;25.74;48.09
75936;BME280;64614;32.062;34.834;2024-01-06T07:27:26;101823.63;;;25.81;47.84
75936;BME280;64614;32.062;34.834;2024-01-06T07:29:52;101828.50;;;25.85;47.87
75936;BME280;64614;32.062;34.834;2024-01-06T07:32:17;101823.31;;;25.83;47.76
75936;BME280;64614;32.062;34.834;2024-01-06T07:34:43;101819.97;;;25.86;47.62
75936;BME280;64614;32.062;34.834;2024-01-06T07:37:09;101825.34;;;25.91;47.96
75936;BME280;64614;32.062;34.834;2024-01-06T07:39:34;101816.56;;;25.89;47.59
75936;BME280;64614;32.062;34.834;2024-01-06T07:42:04;101815.97;;;25.92;48.20
75936;BME280;64614;32.062;34.834;2024-01-06T07:44:30;101809.63;;;25.92;47.58
75936;BME280;64614;32.062;34.834;2024-01-06T07:46:55;101811.78;;;25.95;47.66
75936;BME280;64614;32.062;34.834;2024-01-06T07:49:24;101809.97;;;25.90;47.67
75936;BME280;64614;32.062;34.834;2024-01-06T07:51:49;101811.78;;;25.95;48.06
75936;BME280;64614;32.062;34.834;2024-01-06T07:54:15;101817.19;;;26.00;48.04
75936;BME280;64614;32.062;34.834;2024-01-06T07:56:42;101815.44;;;26.04;47.58
75936;BME280;64614;32.062;34.834;2024-01-06T07:59:10;101814.66;;;26.04;48.15
75936;BME280;64614;32.062;34.834;2024-01-06T08:01:36;101803.63;;;26.04;47.48
75936;BME280;64614;32.062;34.834;2024-01-06T08:04:02;101805.75;;;26.07;47.67
75936;BME280;64614;32.062;34.834;2024-01-06T08:06:27;101804.88;;;26.11;47.30
75936;BME280;64614;32.062;34.834;2024-01-06T08:08:53;101797.72;;;26.10;47.70
75936;BME280;64614;32.062;34.834;2024-01-06T08:11:21;101799.25;;;26.17;47.55
75936;BME280;64614;32.062;34.834;2024-01-06T08:13:47;101791.19;;;26.20;47.31
75936;BME280;64614;32.062;34.834;2024-01-06T08:16:13;101792.72;;;26.26;47.25
75936;BME280;64614;32.062;34.834;2024-01-06T08:18:38;101794.66;;;26.26;47.04
75936;BME280;64614;32.062;34.834;2024-01-06T08:21:04;101792.50;;;26.23;47.05
75936;BME280;64614;32.062;34.834;2024-01-06T08:23:30;101793.50;;;26.27;47.35
75936;BME280;64614;32.062;34.834;2024-01-06T08:25:56;101794.84;;;26.30;47.38
75936;BME280;64614;32.062;34.834;2024-01-06T08:28:22;101790.84;;;26.36;47.09
75936;BME280;64614;32.062;34.834;2024-01-06T08:30:49;101796.03;;;26.37;47.25
75936;BME280;64614;32.062;34.834;2024-01-06T08:33:15;101787.47;;;26.39;46.87
75936;BME280;64614;32.062;34.834;2024-01-06T08:35:40;101776.56;;;26.34;46.76
75936;BME280;64614;32.062;34.834;2024-01-06T08:38:07;101773.53;;;26.35;47.13
75936;BME280;64614;32.062;34.834;2024-01-06T08:40:36;101783.28;;;26.41;46.74
75936;BME280;64614;32.062;34.834;2024-01-06T08:43:03;101784.09;;;26.42;47.09
75936;BME280;64614;32.062;34.834;2024-01-06T08:45:30;101777.47;;;26.43;46.81
75936;BME280;64614;32.062;34.834;2024-01-06T08:47:58;101775.72;;;26.47;46.91
75936;BME280;64614;32.062;34.834;2024-01-06T08:50:28;101761.88;;;26.38;47.13
75936;BME280;64614;32.062;34.834;2024-01-06T08:52:53;101772.31;;;26.50;46.49
75936;BME280;64614;32.062;34.834;2024-01-06T08:55:19;101761.00;;;26.52;46.67
75936;BME280;64614;32.062;34.834;2024-01-06T08:57:45;101763.44;;;26.53;47.15
75936;BME280;64614;32.062;34.834;2024-01-06T09:00:13;101751.91;;;26.51;46.91
75936;BME280;64614;32.062;34.834;2024-01-06T09:02:39;101751.16;;;26.59;46.96
75936;BME280;64614;32.062;34.834;2024-01-06T09:05:05;101741.28;;;26.58;46.56
75936;BME280;64614;32.062;34.834;2024-01-06T09:07:30;101733.00;;;26.58;46.96
75936;BME280;64614;32.062;34.834;2024-01-06T09:09:56;101726.06;;;26.61;46.45
75936;BME280;64614;32.062;34.834;2024-01-06T09:12:23;101718.63;;;26.62;46.96
75936;BME280;64614;32.062;34.834;2024-01-06T09:14:49;101719.91;;;26.64;46.72
75936;BME280;64614;32.062;34.834;2024-01-06T09:17:15;101723.19;;;26.66;47.04
75936;BME280;64614;32.062;34.834;2024-01-06T09:19:40;101706.31;;;26.68;46.00
75936;BME280;64614;32.062;34.834;2024-01-06T09:22:06;101700.34;;;26.66;46.49
75936;BME280;64614;32.062;34.834;2024-01-06T09:24:32;101707.97;;;26.69;46.36
75936;BME280;64614;32.062;34.834;2024-01-06T09:26:59;101677.53;;;26.51;46.30
75936;BME280;64614;32.062;34.834;2024-01-06T09:29:24;101700.00;;;26.67;46.48
75936;BME280;64614;32.062;34.834;2024-01-06T09:31:50;101687.69;;;26.65;46.36
75936;BME280;64614;32.062;34.834;2024-01-06T09:34:16;101701.22;;;26.75;46.14
75936;BME280;64614;32.062;34.834;2024-01-06T09:36:47;101696.19;;;26.77;46.54
75936;BME280;64614;32.062;34.834;2024-01-06T09:39:18;101675.66;;;26.61;46.33
75936;BME280;64614;32.062;34.834;2024-01-06T09:41:44;101694.44;;;26.81;46.59
75936;BME280;64614;32.062;34.834;2024-01-06T09:44:11;101668.66;;;26.77;45.81
75936;BME280;64614;32.062;34.834;2024-01-06T09:46:38;101639.03;;;26.60;46.19
75936;BME280;64614;32.062;34.834;2024-01-06T09:49:05;101673.38;;;26.85;45.74
75936;BME280;64614;32.062;34.834;2024-01-06T09:51:35;101663.13;;;26.77;46.09
75936;BME280;64614;32.062;34.834;2024-01-06T09:54:04;101652.72;;;26.74;45.62
75936;BME280;64614;32.062;34.834;2024-01-06T09:56:33;101663.88;;;26.92;46.30
75936;BME280;64614;32.062;34.834;2024-01-06T09:58:59;101658.34;;;26.92;46.13
75936;BME280;64614;32.062;34.834;2024-01-06T10:01:25;101654.94;;;26.95;46.08
75936;BME280;64614;32.062;34.834;2024-01-06T10:03:51;101652.69;;;26.97;45.76
75936;BME280;64614;32.062;34.834;2024-01-06T10:06:17;101650.44;;;26.99;45.87
75936;BME280;64614;32.062;34.834;2024-01-06T10:08:53;101637.28;;;26.96;46.21
75936;BME280;64614;32.062;34.834;2024-01-06T10:11:27;101636.66;;;26.99;45.93
75936;BME280;64614;32.062;34.834;2024-01-06T10:13:53;101622.72;;;27.04;45.88
75936;BME280;64614;32.062;34.834;2024-01-06T10:16:23;101628.88;;;27.01;45.74
75936;BME280;64614;32.062;34.834;2024-01-06T10:18:49;101616.06;;;27.05;45.78
75936;BME280;64614;32.062;34.834;2024-01-06T10:21:18;101615.09;;;27.01;46.05
75936;BME280;64614;32.062;34.834;2024-01-06T10:23:45;101630.84;;;27.09;45.54
75936;BME280;64614;32.062;34.834;2024-01-06T10:26:14;101620.47;;;27.06;45.80
75936;BME280;64614;32.062;34.834;2024-01-06T10:28:39;101597.59;;;27.05;45.77
75936;BME280;64614;32.062;34.834;2024-01-06T10:31:08;101608.97;;;27.13;45.66
75936;BME280;64614;32.062;34.834;2024-01-06T10:33:36;101602.31;;;27.14;45.72
75936;BME280;64614;32.062;34.834;2024-01-06T10:36:10;101580.84;;;27.02;45.88
75936;BME280;64614;32.062;34.834;2024-01-06T10:38:36;101591.59;;;27.12;46.16
75936;BME280;64614;32.062;34.834;2024-01-06T10:41:07;101583.50;;;27.16;46.22
75936;BME280;64614;32.062;34.834;2024-01-06T10:43:35;101580.72;;;27.16;46.05
75936;BME280;64614;32.062;34.834;2024-01-06T10:46:03;101551.88;;;27.04;45.92
75936;BME280;64614;32.062;34.834;2024-01-06T10:48:38;101559.81;;;27.06;45.44
75936;BME280;64614;32.062;34.834;2024-01-06T10:51:09;101540.00;;;27.04;45.78
75936;BME280;64614;32.062;34.834;2024-01-06T10:53:35;101546.50;;;27.08;45.69
75936;BME280;64614;32.062;34.834;2024-01-06T10:56:03;101562.75;;;27.18;45.60
75936;BME280;64614;32.062;34.834;2024-01-06T10:58:30;101561.13;;;27.17;45.72
75936;BME280;64614;32.062;34.834;2024-01-06T11:01:03;101554.16;;;27.20;45.39
75936;BME280;64614;32.062;34.834;2024-01-06T11:03:29;101565.97;;;27.20;45.57
75936;BME280;64614;32.062;34.834;2024-01-06T11:05:56;101554.78;;;27.17;45.23
75936;BME280;64614;32.062;34.834;2024-01-06T11:08:23;101535.00;;;27.06;45.42
75936;BME280;64614;32.062;34.834;2024-01-06T11:10:51;101552.38;;;27.15;45.43
75936;BME280;64614;32.062;34.834;2024-01-06T11:13:21;101553.81;;;27.13;45.58
75936;BME280;64614;32.062;34.834;2024-01-06T11:15:51;101551.69;;;27.10;45.17
75936;BME280;64614;32.062;34.834;2024-01-06T11:18:46;101551.38;;;27.11;45.30
75936;BME280;64614;32.062;34.834;2024-01-06T11:21:20;101551.03;;;27.04;45.64
75936;BME280;64614;32.062;34.834;2024-01-06T11:24:18;101553.97;;;27.08;45.66
75936;BME280;64614;32.062;34.834;2024-01-06T11:26:51;101510.13;;;26.80;45.42
75936;BME280;64614;32.062;34.834;2024-01-06T11:29:19;101543.88;;;26.94;45.71
75936;BME280;64614;32.062;34.834;2024-01-06T11:32:17;101539.66;;;26.97;45.73
75936;BME280;64614;32.062;34.834;2024-01-06T11:40:32;101547.44;;;26.95;45.53
75936;BME280;64614;32.062;34.834;2024-01-06T11:43:09;101542.22;;;26.84;45.39
75936;BME280;64614;32.062;34.834;2024-01-06T11:45:36;101533.75;;;26.72;45.71
75936;BME280;64614;32.062;34.834;2024-01-06T11:48:04;101527.59;;;26.75;45.37
75936;BME280;64614;32.062;34.834;2024-01-06T11:50:36;101520.09;;;26.67;45.82
75936;BME280;64614;32.062;34.834;2024-01-06T11:53:06;101535.38;;;26.73;45.54
75936;BME280;64614;32.062;34.834;2024-01-06T11:59:02;101493.50;;;26.53;45.71
75936;BME280;64614;32.062;34.834;2024-01-06T12:01:39;101522.38;;;26.65;45.75
75936;BME280;64614;32.062;34.834;2024-01-06T12:09:21;101543.50;;;26.78;45.29
75936;BME280;64614;32.062;34.834;2024-01-06T12:12:00;101538.13;;;26.73;45.75
75936;BME280;64614;32.062;34.834;2024-01-06T12:14:29;101545.66;;;26.90;45.48
75936;BME280;64614;32.062;34.834;2024-01-06T12:16:55;101557.78;;;26.80;45.88
75936;BME280;64614;32.062;34.834;2024-01-06T12:19:25;101547.19;;;26.73;45.87
75936;BME280;64614;32.062;34.834;2024-01-06T12:21:58;101559.25;;;26.78;45.88
75936;BME280;64614;32.062;34.834;2024-01-06T12:24:26;101547.19;;;26.73;45.60
75936;BME280;64614;32.062;34.834;2024-01-06T12:29:29;101536.81;;;26.70;45.69
75936;BME280;64614;32.062;34.834;2024-01-06T12:32:01;101534.53;;;26.64;45.74
75936;BME280;64614;32.062;34.834;2024-01-06T12:34:28;101551.41;;;26.71;45.68
75936;BME280;64614;32.062;34.834;2024-01-06T12:36:56;101557.09;;;26.74;46.07
75936;BME280;64614;32.062;34.834;2024-01-06T12:39:30;101558.22;;;26.73;45.95
75936;BME280;64614;32.062;34.834;2024-01-06T12:42:01;101561.28;;;26.72;45.52
75936;BME280;64614;32.062;34.834;2024-01-06T12:44:27;101552.53;;;26.70;45.60
75936;BME280;64614;32.062;34.834;2024-01-06T12:46:53;101566.81;;;26.72;45.74
75936;BME280;64614;32.062;34.834;2024-01-06T12:49:19;101572.81;;;26.74;45.65
75936;BME280;64614;32.062;34.834;2024-01-06T12:51:45;101570.34;;;26.72;45.88
75936;BME280;64614;32.062;34.834;2024-01-06T12:54:11;101564.50;;;26.65;46.01
75936;BME280;64614;32.062;34.834;2024-01-06T12:56:37;101571.81;;;26.70;45.76
75936;BME280;64614;32.062;34.834;2024-01-06T12:59:03;101567.75;;;26.67;46.15
75936;BME280;64614;32.062;34.834;2024-01-06T13:01:29;101568.44;;;26.73;45.89
75936;BME280;64614;32.062;34.834;2024-01-06T13:09:04;101564.56;;;26.74;46.18
75936;BME280;64614;32.062;34.834;2024-01-06T13:11:33;101570.06;;;26.74;46.08
75936;BME280;64614;32.062;34.834;2024-01-06T13:14:27;101561.91;;;26.69;46.24
75936;BME280;64614;32.062;34.834;2024-01-06T13:17:04;101547.63;;;26.58;46.04
75936;BME280;64614;32.062;34.834;2024-01-06T13:19:34;101571.19;;;26.73;45.81
75936;BME280;64614;32.062;34.834;2024-01-06T15:20:19;101569.69;;;26.67;46.62
75936;BME280;64614;32.062;34.834;2024-01-06T15:22:46;101578.59;;;26.64;46.28
75936;BME280;64614;32.062;34.834;2024-01-06T15:25:12;101586.03;;;26.63;46.43
75936;BME280;64614;32.062;34.834;2024-01-06T15:27:38;101576.81;;;26.59;46.52
75936;BME280;64614;32.062;34.834;2024-01-06T15:30:05;101583.63;;;26.62;46.54
75936;BME280;64614;32.062;34.834;2024-01-06T15:32:37;101583.63;;;26.62;45.90
75936;BME280;64614;32.062;34.834;2024-01-06T15:35:03;101573.88;;;26.55;46.37
75936;BME280;64614;32.062;34.834;2024-01-06T15:37:35;101572.88;;;26.51;45.73
75936;BME280;64614;32.062;34.834;2024-01-06T15:40:02;101577.41;;;26.47;45.60
75936;BME280;64614;32.062;34.834;2024-01-06T15:42:28;101581.91;;;26.43;45.36
75936;BME280;64614;32.062;34.834;2024-01-06T15:44:54;101582.03;;;26.38;45.49
75936;BME280;64614;32.062;34.834;2024-01-06T15:50:45;101575.03;;;26.32;45.67
75936;BME280;64614;32.062;34.834;2024-01-06T15:53:11;101577.13;;;26.26;45.76
75936;BME280;64614;32.062;34.834;2024-01-06T15:55:44;101582.31;;;26.27;45.40
75936;BME280;64614;32.062;34.834;2024-01-06T15:58:11;101567.16;;;26.16;45.61
75936;BME280;64614;32.062;34.834;2024-01-06T16:01:01;101574.50;;;26.21;45.42
75936;BME280;64614;32.062;34.834;2024-01-06T16:10:14;101577.28;;;26.07;44.81
75936;BME280;64614;32.062;34.834;2024-01-06T16:14:15;101579.56;;;26.05;45.21
75936;BME280;64614;32.062;34.834;2024-01-06T16:16:40;101575.59;;;25.97;45.11
75936;BME280;64614;32.062;34.834;2024-01-06T16:19:06;101573.97;;;25.96;44.52
75936;BME280;64614;32.062;34.834;2024-01-06T16:21:32;101574.41;;;25.89;45.02
75936;BME280;64614;32.062;34.834;2024-01-06T16:23:57;101586.25;;;25.90;44.80
75936;BME280;64614;32.062;34.834;2024-01-06T16:26:23;101584.28;;;25.90;44.77
75936;BME280;64614;32.062;34.834;2024-01-06T16:28:51;101580.56;;;25.86;44.64
75936;BME280;64614;32.062;34.834;2024-01-06T16:31:17;101585.72;;;25.88;44.73
75936;BME280;64614;32.062;34.834;2024-01-06T16:33:43;101577.91;;;25.81;45.01
75936;BME280;64614;32.062;34.834;2024-01-06T16:36:08;101582.59;;;25.80;44.56
75936;BME280;64614;32.062;34.834;2024-01-06T16:38:36;101573.66;;;25.75;44.61
75936;BME280;64614;32.062;34.834;2024-01-06T16:41:02;101579.16;;;25.75;44.63
75936;BME280;64614;32.062;34.834;2024-01-06T16:43:29;101579.47;;;25.73;44.76
75936;BME280;64614;32.062;34.834;2024-01-06T16:45:54;101577.34;;;25.70;44.63
75936;BME280;64614;32.062;34.834;2024-01-06T16:48:21;101574.91;;;25.69;44.45
75936;BME280;64614;32.062;34.834;2024-01-06T16:50:47;101561.25;;;25.63;44.48
75936;BME280;64614;32.062;34.834;2024-01-06T16:53:13;101566.75;;;25.63;44.00
75936;BME280;64614;32.062;34.834;2024-01-06T16:55:39;101570.94;;;25.61;44.28
75936;BME280;64614;32.062;34.834;2024-01-06T16:58:05;101565.78;;;25.59;44.17
75936;BME280;64614;32.062;34.834;2024-01-06T17:00:31;101573.50;;;25.57;44.47
75936;BME280;64614;32.062;34.834;2024-01-06T17:02:56;101564.13;;;25.58;44.15
75936;BME280;64614;32.062;34.834;2024-01-06T17:05:22;101569.25;;;25.51;44.11
75936;BME280;64614;32.062;34.834;2024-01-06T17:07:49;101560.81;;;25.47;44.06
75936;BME280;64614;32.062;34.834;2024-01-06T17:10:15;101569.88;;;25.48;44.37
75936;BME280;64614;32.062;34.834;2024-01-06T17:12:41;101567.63;;;25.50;44.44
75936;BME280;64614;32.062;34.834;2024-01-06T17:15:07;101565.16;;;25.48;44.24
75936;BME280;64614;32.062;34.834;2024-01-06T17:17:34;101555.94;;;25.44;44.20
75936;BME280;64614;32.062;34.834;2024-01-06T17:19:59;101569.88;;;25.48;44.26
75936;BME280;64614;32.062;34.834;2024-01-06T17:22:25;101561.22;;;25.41;44.60
75936;BME280;64614;32.062;34.834;2024-01-06T17:24:51;101564.97;;;25.45;44.47
75936;BME280;64614;32.062;34.834;2024-01-06T17:27:16;101560.69;;;25.39;44.57
75936;BME280;64614;32.062;34.834;2024-01-06T17:29:42;101553.06;;;25.35;44.05
75936;BME280;64614;32.062;34.834;2024-01-06T17:32:08;101559.06;;;25.38;44.11
75936;BME280;64614;32.062;34.834;2024-01-06T17:34:34;101574.16;;;25.40;44.46
75936;BME280;64614;32.062;34.834;2024-01-06T17:37:00;101560.19;;;25.37;44.50
75936;BME280;64614;32.062;34.834;2024-01-06T17:39:26;101561.81;;;25.38;44.44
75936;BME280;64614;32.062;34.834;2024-01-06T17:41:51;101556.44;;;25.32;44.53
75936;BME280;64614;32.062;34.834;2024-01-06T17:44:27;101559.47;;;25.31;44.12
75936;BME280;64614;32.062;34.834;2024-01-06T17:46:57;101534.28;;;25.15;44.30
75936;BME280;64614;32.062;34.834;2024-01-06T17:51:58;101536.91;;;25.20;44.23
75936;BME280;64614;32.062;34.834;2024-01-06T17:54:23;101561.09;;;25.32;44.40
75936;BME280;64614;32.062;34.834;2024-01-06T17:56:49;101560.50;;;25.35;44.22
75936;BME280;64614;32.062;34.834;2024-01-06T17:59:16;101523.56;;;25.13;44.56
75936;BME280;64614;32.062;34.834;2024-01-06T18:01:42;101530.78;;;25.23;44.29
75936;BME280;64614;32.062;34.834;2024-01-06T18:04:10;101542.19;;;25.30;44.18
75936;BME280;64614;32.062;34.834;2024-01-06T18:09:01;101508.41;;;25.16;44.11
75936;BME280;64614;32.062;34.834;2024-01-06T18:11:39;101489.69;;;25.04;44.05
75936;BME280;64614;32.062;34.834;2024-01-06T18:14:06;101496.22;;;25.08;44.40
75936;BME280;64614;32.062;34.834;2024-01-06T18:16:42;101507.50;;;25.21;44.46
75936;BME280;64614;32.062;34.834;2024-01-06T18:19:11;101502.41;;;25.14;44.64
75936;BME280;64614;32.062;34.834;2024-01-06T18:21:37;101517.25;;;25.27;44.39
75936;BME280;64614;32.062;34.834;2024-01-06T18:24:03;101514.81;;;25.25;44.59
75936;BME280;64614;32.062;34.834;2024-01-06T18:26:30;101509.00;;;25.27;44.27
75936;BME280;64614;32.062;34.834;2024-01-06T18:28:55;101513.66;;;25.26;44.69
75936;BME280;64614;32.062;34.834;2024-01-06T18:31:21;101512.06;;;25.25;44.35
75936;BME280;64614;32.062;34.834;2024-01-06T18:34:21;101512.75;;;25.31;44.31
75936;BME280;64614;32.062;34.834;2024-01-06T18:36:46;101504.28;;;25.27;44.08
75936;BME280;64614;32.062;34.834;2024-01-06T18:39:12;101486.63;;;25.19;44.56
75936;BME280;64614;32.062;34.834;2024-01-06T18:41:38;101495.56;;;25.25;43.97
75936;BME280;64614;32.062;34.834;2024-01-06T18:44:05;101492.31;;;25.23;43.91
75936;BME280;64614;32.062;34.834;2024-01-06T18:46:36;101505.03;;;25.19;43.71
75936;BME280;64614;32.062;34.834;2024-01-06T18:49:02;101497.63;;;25.19;43.60
75936;BME280;64614;32.062;34.834;2024-01-06T18:51:27;101486.09;;;25.17;43.58
75936;BME280;64614;32.062;34.834;2024-01-06T18:53:54;101488.03;;;25.17;43.72
75936;BME280;64614;32.062;34.834;2024-01-06T18:56:26;101458.56;;;24.95;43.68
75936;BME280;64614;32.062;34.834;2024-01-06T18:58:52;101486.25;;;25.12;43.47
75936;BME280;64614;32.062;34.834;2024-01-06T19:11:45;101472.91;;;25.06;43.42
75936;BME280;64614;32.062;34.834;2024-01-06T19:14:10;101465.28;;;25.02;43.30
75936;BME280;64614;32.062;34.834;2024-01-06T19:16:36;101467.03;;;24.98;43.10
75936;BME280;64614;32.062;34.834;2024-01-06T19:19:02;101466.91;;;25.03;43.40
75936;BME280;64614;32.062;34.834;2024-01-06T19:21:29;101462.66;;;24.97;42.58
75936;BME280;64614;32.062;34.834;2024-01-06T19:23:56;101460.00;;;24.92;42.51
75936;BME280;64614;32.062;34.834;2024-01-06T19:28:59;101457.25;;;24.92;42.75
75936;BME280;64614;32.062;34.834;2024-01-06T19:33:51;101474.38;;;24.89;42.47
75936;BME280;64614;32.062;34.834;2024-01-06T19:38:53;101469.78;;;24.84;42.93
75936;BME280;64614;32.062;34.834;2024-01-06T19:41:20;101436.53;;;24.72;42.52
75936;BME280;64614;32.062;34.834;2024-01-06T19:46:19;101449.75;;;24.84;42.60